Time;durP1;ratioP1;P1;durP2;ratioP2;P2;SDS_P1;SDS_P2;PMS_P1;PMS_P2;Temp;Humidity;BMP_temperature;BMP_pressure;BME280_temperature;BME280_humidity;BME280_pressure;Samples;Min_cycle;Max_cycle;Signal;HPM_P1;HPM_P2
2022/06/14 00:01:01;;;;;;;15.98;3.58;;;;;;;;;;4894201;29;20045;-82
2022/06/14 00:03:35;;;;;;;12.43;3.28;;;;;;;;;;4889925;29;20049;-80
2022/06/14 00:06:08;;;;;;;15.50;3.50;;;;;;;;;;4891748;29;20044;-81
2022/06/14 00:08:34;;;;;;;16.63;3.93;;;;;;;;;;4901483;29;20532;-81
2022/06/14 00:11:02;;;;;;;14.02;3.50;;;;;;;;;;4897725;29;20508;-82
2022/06/14 00:13:29;;;;;;;13.73;3.47;;;;;;;;;;4901083;29;20130;-82
2022/06/14 00:15:55;;;;;;;11.30;3.58;;;;;;;;;;4893959;29;20127;-83
2022/06/14 00:18:21;;;;;;;16.02;3.63;;;;;;;;;;4898068;29;20456;-81
2022/06/14 00:20:49;;;;;;;11.80;3.40;;;;;;;;;;4897309;29;20048;-83
2022/06/14 00:23:16;;;;;;;14.38;3.42;;;;;;;;;;4881495;29;20049;-81
2022/06/14 00:25:43;;;;;;;11.00;3.22;;;;;;;;;;4884260;29;20422;-81
2022/06/14 00:28:12;;;;;;;12.98;3.67;;;;;;;;;;4895208;29;20056;-82
2022/06/14 00:30:39;;;;;;;14.40;3.83;;;;;;;;;;4870947;29;20044;-81
2022/06/14 00:33:06;;;;;;;12.00;3.35;;;;;;;;;;4891569;29;20044;-81
2022/06/14 00:35:32;;;;;;;12.38;3.33;;;;;;;;;;4879427;29;20088;-82
2022/06/14 00:38:00;;;;;;;11.50;3.95;;;;;;;;;;4889366;29;20556;-81
2022/06/14 00:40:28;;;;;;;16.92;4.13;;;;;;;;;;4898225;29;20049;-80
2022/06/14 00:42:54;;;;;;;14.30;3.65;;;;;;;;;;4883995;29;20335;-82
2022/06/14 00:45:23;;;;;;;10.27;2.88;;;;;;;;;;4859023;29;20083;-81
2022/06/14 00:47:49;;;;;;;11.50;3.60;;;;;;;;;;4899844;29;20040;-80
2022/06/14 00:50:20;;;;;;;11.40;3.40;;;;;;;;;;4902191;29;20070;-80
2022/06/14 00:52:49;;;;;;;13.25;3.17;;;;;;;;;;4906680;29;20112;-82
2022/06/14 00:55:24;;;;;;;8.32;3.20;;;;;;;;;;4885525;29;20044;-81
2022/06/14 00:57:53;;;;;;;13.35;3.60;;;;;;;;;;4907002;29;20202;-81
2022/06/14 01:00:21;;;;;;;16.25;3.60;;;;;;;;;;4887797;29;20044;-82
2022/06/14 01:02:50;;;;;;;14.70;4.07;;;;;;;;;;4893071;29;20107;-80
2022/06/14 01:05:20;;;;;;;14.30;3.15;;;;;;;;;;4898398;29;20044;-80
2022/06/14 01:07:47;;;;;;;10.90;4.07;;;;;;;;;;4889571;29;20048;-80
2022/06/14 01:10:19;;;;;;;12.30;3.58;;;;;;;;;;4888297;29;20048;-81
2022/06/14 01:12:46;;;;;;;15.48;3.63;;;;;;;;;;4903419;29;20082;-81
2022/06/14 01:15:22;;;;;;;11.15;3.80;;;;;;;;;;4897472;29;20040;-80
2022/06/14 01:17:52;;;;;;;10.98;3.65;;;;;;;;;;4898585;29;20040;-80
2022/06/14 01:20:19;;;;;;;12.80;3.92;;;;;;;;;;4899366;29;20052;-81
2022/06/14 01:22:46;;;;;;;13.93;3.75;;;;;;;;;;4916528;29;20051;-79
2022/06/14 01:25:12;;;;;;;17.08;3.88;;;;;;;;;;4900450;29;20056;-81
2022/06/14 01:27:39;;;;;;;17.35;3.80;;;;;;;;;;4919028;29;20090;-81
2022/06/14 01:30:08;;;;;;;13.52;4.03;;;;;;;;;;4890839;29;20053;-80
2022/06/14 01:32:36;;;;;;;10.98;3.92;;;;;;;;;;4876616;29;20104;-80
2022/06/14 01:35:06;;;;;;;13.20;4.00;;;;;;;;;;4896194;29;20111;-81
2022/06/14 01:37:32;;;;;;;17.45;4.63;;;;;;;;;;4905582;29;20056;-81
2022/06/14 01:39:58;;;;;;;15.93;3.95;;;;;;;;;;4908284;29;20484;-82
2022/06/14 01:42:30;;;;;;;19.60;4.13;;;;;;;;;;4901462;29;20132;-80
2022/06/14 01:45:05;;;;;;;12.15;4.03;;;;;;;;;;4903455;29;20103;-82
2022/06/14 01:47:31;;;;;;;12.60;3.95;;;;;;;;;;4906169;29;20051;-80
2022/06/14 01:53:00;;;;;;;19.27;4.15;;;;;;;;;;4898444;29;20083;-81
2022/06/14 01:55:34;;;;;;;13.38;4.28;;;;;;;;;;4912647;29;20051;-81
2022/06/14 01:58:03;;;;;;;18.80;4.85;;;;;;;;;;4904077;29;20066;-80
2022/06/14 02:00:31;;;;;;;16.30;4.93;;;;;;;;;;4905052;29;20133;-79
2022/06/14 02:06:14;;;;;;;14.75;4.50;;;;;;;;;;4881666;29;20139;-81
2022/06/14 02:08:46;;;;;;;16.23;4.30;;;;;;;;;;4892635;29;20543;-82
2022/06/14 02:11:15;;;;;;;17.42;4.35;;;;;;;;;;4893534;29;20052;-82
2022/06/14 02:13:55;;;;;;;14.43;3.80;;;;;;;;;;4881835;29;20044;-80
2022/06/14 02:16:21;;;;;;;15.25;4.07;;;;;;;;;;4877084;29;20187;-81
2022/06/14 02:18:47;;;;;;;12.52;4.65;;;;;;;;;;4888937;29;20497;-82
2022/06/14 02:21:16;;;;;;;17.00;4.20;;;;;;;;;;4889087;29;20052;-80
2022/06/14 02:23:55;;;;;;;13.38;4.28;;;;;;;;;;4877172;29;20044;-81
2022/06/14 02:26:33;;;;;;;15.40;4.43;;;;;;;;;;4882315;29;20056;-80
2022/06/14 02:29:19;;;;;;;12.45;4.40;;;;;;;;;;4883962;29;20507;-82
2022/06/14 02:32:07;;;;;;;16.23;3.95;;;;;;;;;;4877936;29;20120;-80
2022/06/14 02:34:35;;;;;;;18.08;4.43;;;;;;;;;;4904216;29;20056;-80
2022/06/14 02:37:05;;;;;;;17.05;4.47;;;;;;;;;;4894595;29;20528;-81
2022/06/14 02:39:36;;;;;;;15.75;5.60;;;;;;;;;;4903356;29;20412;-82
2022/06/14 02:42:02;;;;;;;12.65;3.65;;;;;;;;;;4888048;29;20051;-82
2022/06/14 02:44:37;;;;;;;10.90;3.63;;;;;;;;;;4874960;29;20564;-81
2022/06/14 02:47:03;;;;;;;18.38;4.95;;;;;;;;;;4906928;29;20101;-82
2022/06/14 02:49:33;;;;;;;12.68;4.60;;;;;;;;;;4893141;29;20568;-82
2022/06/14 02:52:10;;;;;;;19.35;4.32;;;;;;;;;;4879582;29;20127;-82
2022/06/14 02:54:55;;;;;;;16.98;4.32;;;;;;;;;;4903745;29;20056;-82
2022/06/14 02:57:21;;;;;;;;;;;;;;;;;;4894885;29;20135;-83
2022/06/14 02:59:56;;;;;;;13.00;3.92;;;;;;;;;;4905893;29;19966;-81
2022/06/14 03:02:25;;;;;;;14.95;4.20;;;;;;;;;;4881146;29;20067;-82
2022/06/14 03:04:57;;;;;;;15.25;4.78;;;;;;;;;;4879719;29;20053;-79
2022/06/14 03:07:32;;;;;;;17.38;4.53;;;;;;;;;;4890849;29;20052;-82
2022/06/14 03:09:58;;;;;;;16.27;4.22;;;;;;;;;;4893718;29;20040;-82
2022/06/14 03:12:32;;;;;;;13.18;4.15;;;;;;;;;;4892955;29;20096;-82
2022/06/14 03:14:58;;;;;;;15.88;4.22;;;;;;;;;;4891063;29;20108;-81
2022/06/14 03:17:30;;;;;;;11.23;4.00;;;;;;;;;;4879952;29;20052;-81
2022/06/14 03:19:56;;;;;;;12.02;4.60;;;;;;;;;;4901296;29;20053;-81
2022/06/14 03:22:29;;;;;;;17.08;4.30;;;;;;;;;;4889056;29;20055;-81
2022/06/14 03:25:14;;;;;;;16.25;4.60;;;;;;;;;;4907663;29;20047;-81
2022/06/14 03:27:47;;;;;;;14.38;4.25;;;;;;;;;;4888029;29;20048;-83
2022/06/14 03:30:23;;;;;;;22.83;4.38;;;;;;;;;;4898132;29;20084;-80
2022/06/14 03:32:52;;;;;;;12.75;4.22;;;;;;;;;;4874739;29;20066;-82
2022/06/14 03:35:33;;;;;;;19.08;4.53;;;;;;;;;;4900456;29;20053;-80
2022/06/14 03:38:01;;;;;;;10.90;3.75;;;;;;;;;;4874351;29;20071;-81
2022/06/14 03:40:27;;;;;;;14.25;4.68;;;;;;;;;;4902313;29;20116;-83
2022/06/14 03:42:53;;;;;;;16.70;4.82;;;;;;;;;;4873373;29;20124;-81
2022/06/14 03:45:21;;;;;;;14.23;4.40;;;;;;;;;;4882396;29;20480;-82
2022/06/14 03:47:47;;;;;;;12.55;4.50;;;;;;;;;;4884512;29;20065;-80
2022/06/14 03:50:15;;;;;;;12.57;4.50;;;;;;;;;;4899529;29;20079;-82
2022/06/14 03:52:57;;;;;;;14.15;4.47;;;;;;;;;;4894255;29;20093;-82
2022/06/14 03:55:23;;;;;;;12.45;4.35;;;;;;;;;;4883619;29;20131;-81
2022/06/14 03:58:08;;;;;;;13.75;4.50;;;;;;;;;;4881786;29;20037;-81
2022/06/14 04:00:47;;;;;;;13.23;4.45;;;;;;;;;;4885508;29;20051;-81
2022/06/14 04:03:19;;;;;;;13.52;4.30;;;;;;;;;;4877912;29;20517;-82
2022/06/14 04:05:45;;;;;;;13.88;4.15;;;;;;;;;;4887805;29;20057;-82
2022/06/14 04:08:14;;;;;;;16.17;5.07;;;;;;;;;;4892200;29;20044;-81
2022/06/14 04:10:47;;;;;;;12.35;3.70;;;;;;;;;;4890880;29;20060;-81
2022/06/14 04:13:20;;;;;;;12.27;4.50;;;;;;;;;;4901085;29;20049;-80
2022/06/14 04:15:55;;;;;;;12.80;4.15;;;;;;;;;;4874078;29;20052;-82
2022/06/14 04:18:51;;;;;;;12.60;4.32;;;;;;;;;;4899455;29;20048;-81
2022/06/14 04:21:20;;;;;;;9.55;4.18;;;;;;;;;;4884444;29;20104;-81
2022/06/14 04:24:06;;;;;;;14.35;4.05;;;;;;;;;;4883174;29;20048;-80
2022/06/14 04:26:39;;;;;;;15.63;4.60;;;;;;;;;;4892413;29;20052;-82
2022/06/14 04:29:12;;;;;;;13.77;4.57;;;;;;;;;;4881430;29;20072;-81
2022/06/14 04:31:48;;;;;;;16.17;4.65;;;;;;;;;;4886511;29;20056;-81
2022/06/14 04:34:14;;;;;;;13.15;4.22;;;;;;;;;;4895980;29;20056;-80
2022/06/14 04:36:45;;;;;;;16.73;4.07;;;;;;;;;;4894046;29;20044;-81
2022/06/14 04:39:23;;;;;;;15.00;4.55;;;;;;;;;;4877772;29;20136;-80
2022/06/14 04:41:55;;;;;;;15.50;4.82;;;;;;;;;;4904128;29;20048;-81
2022/06/14 04:44:41;;;;;;;12.15;4.55;;;;;;;;;;4880538;29;20045;-80
2022/06/14 04:47:11;;;;;;;12.05;4.05;;;;;;;;;;4899668;29;20052;-79
2022/06/14 04:49:41;;;;;;;20.85;4.75;;;;;;;;;;4874855;29;20076;-80
2022/06/14 04:52:23;;;;;;;19.08;5.90;;;;;;;;;;4877370;29;20516;-80
2022/06/14 04:54:52;;;;;;;24.48;4.78;;;;;;;;;;4886531;29;20139;-81
2022/06/14 04:57:23;;;;;;;9.77;3.85;;;;;;;;;;4888057;29;20037;-80
2022/06/14 04:59:53;;;;;;;12.93;4.53;;;;;;;;;;4890431;29;20044;-81
2022/06/14 05:02:22;;;;;;;17.35;4.95;;;;;;;;;;4871878;29;20044;-80
2022/06/14 05:04:52;;;;;;;14.43;4.05;;;;;;;;;;4862153;29;20048;-81
2022/06/14 05:07:32;;;;;;;13.63;3.95;;;;;;;;;;4875371;29;20192;-80
2022/06/14 05:10:04;;;;;;;10.35;3.75;;;;;;;;;;4873285;29;20052;-80
2022/06/14 05:12:33;;;;;;;15.93;4.20;;;;;;;;;;4873620;29;20048;-80
2022/06/14 05:14:59;;;;;;;15.82;4.25;;;;;;;;;;4889526;29;20037;-79
2022/06/14 05:17:29;;;;;;;10.95;3.95;;;;;;;;;;4873555;29;20045;-81
2022/06/14 05:19:55;;;;;;;12.38;3.90;;;;;;;;;;4872994;29;20049;-80
2022/06/14 05:22:21;;;;;;;14.75;3.92;;;;;;;;;;4900155;29;20508;-80
2022/06/14 05:24:49;;;;;;;18.23;3.80;;;;;;;;;;4880967;29;20052;-81
2022/06/14 05:27:18;;;;;;;15.98;3.60;;;;;;;;;;4901419;29;20043;-81
2022/06/14 05:29:44;;;;;;;15.45;3.83;;;;;;;;;;4892149;29;20047;-82
2022/06/14 05:32:28;;;;;;;14.60;3.85;;;;;;;;;;4874201;29;20112;-80
2022/06/14 05:35:13;;;;;;;19.13;5.95;;;;;;;;;;4874121;29;20048;-79
2022/06/14 05:37:50;;;;;;;12.68;3.50;;;;;;;;;;4901634;29;20412;-79
2022/06/14 05:40:29;;;;;;;15.13;3.75;;;;;;;;;;4872474;29;20056;-80
2022/06/14 05:43:01;;;;;;;13.68;3.40;;;;;;;;;;4872945;29;20055;-80
2022/06/14 05:45:28;;;;;;;13.07;2.88;;;;;;;;;;4872176;29;20507;-81
2022/06/14 05:47:57;;;;;;;17.30;3.10;;;;;;;;;;4904915;29;20080;-82
2022/06/14 05:50:26;;;;;;;14.35;3.60;;;;;;;;;;4895318;29;20501;-81
2022/06/14 05:52:52;;;;;;;14.63;2.83;;;;;;;;;;4897961;29;20048;-81
2022/06/14 05:55:26;;;;;;;21.83;3.55;;;;;;;;;;4857182;29;20040;-81
2022/06/14 05:57:56;;;;;;;9.77;2.85;;;;;;;;;;4898695;29;20063;-82
2022/06/14 06:00:33;;;;;;;12.63;2.53;;;;;;;;;;4890035;29;20405;-79
2022/06/14 06:03:02;;;;;;;11.15;3.40;;;;;;;;;;4899368;29;20046;-81
2022/06/14 06:05:31;;;;;;;12.43;3.33;;;;;;;;;;4889384;29;20055;-81
2022/06/14 06:08:01;;;;;;;12.50;4.05;;;;;;;;;;4878947;29;20379;-80
2022/06/14 06:10:31;;;;;;;7.72;2.83;;;;;;;;;;4904110;29;20043;-82
2022/06/14 06:13:03;;;;;;;14.57;2.95;;;;;;;;;;4902772;29;20052;-81
2022/06/14 06:16:07;;;;;;;8.35;2.63;;;;;;;;;;4894789;29;20044;-82
2022/06/14 06:18:48;;;;;;;15.10;2.63;;;;;;;;;;4830910;29;20580;-80
2022/06/14 06:21:17;;;;;;;10.52;2.40;;;;;;;;;;4798426;29;20050;-79
2022/06/14 06:23:49;;;;;;;12.68;2.78;;;;;;;;;;4869991;29;20123;-81
2022/06/14 06:26:18;;;;;;;13.82;3.38;;;;;;;;;;4891704;29;20053;-82
2022/06/14 06:28:48;;;;;;;12.75;3.40;;;;;;;;;;4901359;29;20040;-81
2022/06/14 06:31:40;;;;;;;8.75;2.58;;;;;;;;;;4888981;29;20036;-82
2022/06/14 06:34:11;;;;;;;8.07;1.90;;;;;;;;;;4870631;29;20394;-82
2022/06/14 06:36:43;;;;;;;7.72;2.45;;;;;;;;;;4904086;29;20080;-82
2022/06/14 06:39:25;;;;;;;13.55;2.70;;;;;;;;;;4887938;29;20044;-82
2022/06/14 06:41:56;;;;;;;9.30;2.28;;;;;;;;;;4896422;29;20036;-79
2022/06/14 06:44:24;;;;;;;10.65;2.83;;;;;;;;;;4894570;29;20063;-81
2022/06/14 06:46:52;;;;;;;10.20;2.42;;;;;;;;;;4888096;29;20058;-82
2022/06/14 06:49:19;;;;;;;11.70;2.25;;;;;;;;;;4896929;29;20053;-83
2022/06/14 06:51:51;;;;;;;18.88;3.78;;;;;;;;;;4890825;29;20051;-82
2022/06/14 06:54:25;;;;;;;9.60;2.83;;;;;;;;;;4905171;29;20055;-81
2022/06/14 06:56:54;;;;;;;9.80;3.05;;;;;;;;;;4893169;29;20048;-83
2022/06/14 06:59:34;;;;;;;13.25;2.75;;;;;;;;;;4900677;29;20036;-82
2022/06/14 07:02:03;;;;;;;10.80;2.95;;;;;;;;;;4891543;29;20063;-82
2022/06/14 07:07:19;;;;;;;12.85;4.82;;;;;;;;;;4890931;29;20051;-82
2022/06/14 07:09:48;;;;;;;12.07;2.90;;;;;;;;;;4888950;29;20565;-82
2022/06/14 07:12:26;;;;;;;8.18;2.80;;;;;;;;;;4874928;29;20054;-80
2022/06/14 07:14:55;;;;;;;10.48;3.58;;;;;;;;;;4890019;29;20044;-82
2022/06/14 07:17:22;;;;;;;9.25;2.55;;;;;;;;;;4884347;29;20127;-79
2022/06/14 07:19:48;;;;;;;11.18;2.30;;;;;;;;;;4892541;29;20056;-81
2022/06/14 07:22:14;;;;;;;9.05;2.47;;;;;;;;;;4883260;29;20064;-82
2022/06/14 07:24:49;;;;;;;8.65;2.40;;;;;;;;;;4873190;29;20060;-80
2022/06/14 07:27:17;;;;;;;12.68;2.53;;;;;;;;;;4874515;29;20176;-79
2022/06/14 07:29:47;;;;;;;9.65;2.65;;;;;;;;;;4873306;29;20036;-81
2022/06/14 07:32:18;;;;;;;6.68;2.75;;;;;;;;;;4891006;29;20421;-81
2022/06/14 07:34:45;;;;;;;7.55;2.35;;;;;;;;;;4875566;29;20060;-81
2022/06/14 07:37:26;;;;;;;13.65;2.95;;;;;;;;;;4874453;29;20055;-80
2022/06/14 07:39:55;;;;;;;6.35;1.98;;;;;;;;;;4890414;29;20036;-80
2022/06/14 07:42:40;;;;;;;5.63;1.52;;;;;;;;;;4898463;29;20521;-80
2022/06/14 07:45:17;;;;;;;11.45;2.80;;;;;;;;;;4873037;29;20067;-80
2022/06/14 07:47:48;;;;;;;8.82;2.10;;;;;;;;;;4886438;29;20135;-81
2022/06/14 07:50:14;;;;;;;12.60;2.30;;;;;;;;;;4885612;29;20500;-81
2022/06/14 07:52:53;;;;;;;11.52;2.22;;;;;;;;;;4904569;29;20107;-81
2022/06/14 07:55:27;;;;;;;6.45;1.75;;;;;;;;;;4907038;29;20051;-80
2022/06/14 07:58:14;;;;;;;10.38;2.40;;;;;;;;;;4897001;29;20056;-85
2022/06/14 08:03:38;;;;;;;7.35;2.20;;;;;;;;;;4872726;29;20061;-84
2022/06/14 08:06:07;;;;;;;6.97;2.03;;;;;;;;;;4881485;29;20517;-83
2022/06/14 08:08:40;;;;;;;9.00;2.25;;;;;;;;;;4893707;29;20050;-81
2022/06/14 08:11:19;;;;;;;10.73;2.10;;;;;;;;;;4899521;29;20055;-84
2022/06/14 08:13:49;;;;;;;6.20;1.88;;;;;;;;;;4889437;29;20123;-84
2022/06/14 08:16:17;;;;;;;8.18;1.60;;;;;;;;;;4888529;29;20068;-84
2022/06/14 08:18:53;;;;;;;7.05;2.05;;;;;;;;;;4859033;29;20423;-85
2022/06/14 08:21:22;;;;;;;6.75;1.98;;;;;;;;;;4873955;29;20504;-84
2022/06/14 08:23:53;;;;;;;9.55;2.17;;;;;;;;;;4902238;29;20047;-81
2022/06/14 08:26:30;;;;;;;9.57;1.95;;;;;;;;;;4890687;29;20036;-83
2022/06/14 08:29:10;;;;;;;6.22;1.80;;;;;;;;;;4882873;29;20056;-81
2022/06/14 08:31:43;;;;;;;6.53;2.13;;;;;;;;;;4900104;29;20052;-83
2022/06/14 08:34:09;;;;;;;10.10;2.30;;;;;;;;;;4879995;29;20104;-85
2022/06/14 08:36:45;;;;;;;5.20;1.60;;;;;;;;;;4877188;29;20055;-84
2022/06/14 08:39:14;;;;;;;6.28;1.67;;;;;;;;;;4897156;29;20132;-81
2022/06/14 08:41:40;;;;;;;9.05;2.03;;;;;;;;;;4890526;29;20056;-82
2022/06/14 08:44:14;;;;;;;3.03;1.30;;;;;;;;;;4873846;29;20135;-82
2022/06/14 08:46:58;;;;;;;9.57;2.03;;;;;;;;;;4893767;29;20040;-87
2022/06/14 08:49:43;;;;;;;6.93;1.83;;;;;;;;;;4888523;29;20066;-84
2022/06/14 08:52:21;;;;;;;6.72;1.67;;;;;;;;;;4906172;29;20056;-84
2022/06/14 08:54:51;;;;;;;12.02;2.95;;;;;;;;;;4884817;29;20044;-84
2022/06/14 08:57:29;;;;;;;9.95;1.83;;;;;;;;;;4872379;29;20056;-83
2022/06/14 08:59:59;;;;;;;7.32;1.92;;;;;;;;;;4872403;29;20036;-82
2022/06/14 09:02:28;;;;;;;3.67;1.20;;;;;;;;;;4870320;29;20052;-81
2022/06/14 09:05:07;;;;;;;5.57;1.20;;;;;;;;;;4877862;29;20044;-82
2022/06/14 09:07:51;;;;;;;3.17;1.10;;;;;;;;;;4859631;29;20052;-81
2022/06/14 09:10:35;;;;;;;7.18;1.40;;;;;;;;;;4890112;29;20048;-84
2022/06/14 09:13:11;;;;;;;4.93;1.50;;;;;;;;;;4893631;29;20049;-83
2022/06/14 09:15:37;;;;;;;4.82;1.20;;;;;;;;;;4895421;29;20525;-81
2022/06/14 09:18:03;;;;;;;7.85;1.83;;;;;;;;;;4910877;29;20089;-81
2022/06/14 09:20:38;;;;;;;4.50;1.80;;;;;;;;;;4894835;29;20056;-80
2022/06/14 09:23:17;;;;;;;5.40;1.38;;;;;;;;;;4902930;29;20048;-81
2022/06/14 09:25:57;;;;;;;2.60;1.10;;;;;;;;;;4889451;29;20059;-81
2022/06/14 09:28:41;;;;;;;6.85;0.90;;;19.30;99.90;;;;;;4877271;29;20136;-81
2022/06/14 09:31:37;;;;;;;5.45;1.27;;;;;;;;;;4874084;29;20076;-80
2022/06/14 09:34:09;;;;;;;8.65;1.60;;;;;;;;;;4864389;29;20048;-83
2022/06/14 09:36:44;;;;;;;3.45;1.20;;;;;;;;;;4888272;29;20041;-83
2022/06/14 09:39:22;;;;;;;5.32;1.35;;;;;;;;;;4878644;29;20063;-88
2022/06/14 09:42:06;;;;;;;3.95;1.35;;;;;;;;;;4864511;29;20138;-84
2022/06/14 09:44:48;;;;;;;3.10;1.10;;;;;;;;;;4900550;29;20504;-81
2022/06/14 09:47:33;;;;;;;6.40;1.45;;;;;;;;;;4879138;29;20396;-85
2022/06/14 09:50:02;;;;;;;5.68;1.45;;;;;;;;;;4893651;29;20052;-84
2022/06/14 09:52:29;;;;;;;3.10;1.20;;;;;;;;;;4894004;29;20052;-84
2022/06/14 09:55:24;;;;;;;4.82;1.30;;;18.90;99.90;;;;;;4886119;29;20040;-83
2022/06/14 09:58:16;;;;;;;5.95;1.42;;;19.10;99.90;;;;;;4876714;29;20493;-86
2022/06/14 10:00:59;;;;;;;4.30;0.90;;;;;;;;;;4901276;29;20072;-85
2022/06/14 10:03:31;;;;;;;6.22;1.20;;;;;;;;;;4890530;29;20032;-83
2022/06/14 10:06:06;;;;;;;4.53;1.33;;;;;;;;;;4862822;29;20089;-86
2022/06/14 10:08:48;;;;;;;2.60;1.10;;;;;;;;;;4878207;29;20119;-85
2022/06/14 10:11:23;;;;;;;2.88;1.00;;;;;;;;;;4876630;29;20111;-87
2022/06/14 10:13:55;;;;;;;6.30;1.20;;;;;;;;;;4879229;29;20578;-86
2022/06/14 10:16:40;;;;;;;5.10;1.05;;;;;;;;;;4876805;29;20115;-87
2022/06/14 10:19:17;;;;;;;6.05;1.48;;;;;;;;;;4881569;29;20052;-86
2022/06/14 10:22:01;;;;;;;3.92;0.93;;;;;;;;;;4876552;29;20087;-85
2022/06/14 10:24:48;;;;;;;3.30;1.45;;;;;;;;;;4893047;29;20055;-85
2022/06/14 10:30:11;;;;;;;3.92;1.63;;;;;;;;;;4875230;29;20051;-83
2022/06/14 10:32:43;;;;;;;5.22;1.50;;;;;;;;;;4895182;29;20049;-83
2022/06/14 10:35:15;;;;;;;5.32;1.33;;;;;;;;;;4859815;29;20068;-86
2022/06/14 10:38:00;;;;;;;3.00;1.00;;;21.40;99.90;;;;;;4880120;29;20119;-84
2022/06/14 10:40:45;;;;;;;2.13;1.10;;;;;;;;;;4864206;29;20592;-84
2022/06/14 10:43:31;;;;;;;3.78;1.27;;;;;;;;;;4879617;29;20458;-86
2022/06/14 10:46:01;;;;;;;3.00;1.20;;;;;;;;;;4887842;29;20048;-85
2022/06/14 10:48:31;;;;;;;5.63;1.20;;;;;;;;;;4889265;29;20044;-85
2022/06/14 10:51:15;;;;;;;3.35;1.00;;;;;;;;;;4881459;29;20044;-85
2022/06/14 10:53:42;;;;;;;4.88;1.20;;;;;;;;;;4879382;29;20076;-88
2022/06/14 10:56:37;;;;;;;4.45;1.20;;;;;;;;;;4894107;29;20037;-86
2022/06/14 10:59:23;;;;;;;4.35;1.30;;;;;;;;;;4868993;29;20387;-86
2022/06/14 11:02:02;;;;;;;4.10;1.38;;;;;;;;;;4869106;29;20053;-85
2022/06/14 11:04:33;;;;;;;3.65;1.10;;;;;;;;;;4894568;29;20060;-84
2022/06/14 11:07:38;;;;;;;4.80;1.40;;;;;;;;;;4881010;29;20537;-83
2022/06/14 11:10:23;;;;;;;5.78;1.60;;;;;;;;;;4842998;29;20060;-87
2022/06/14 11:12:49;;;;;;;3.92;1.08;;;;;;;;;;4847929;29;20046;-85
2022/06/14 11:15:33;;;;;;;3.67;1.05;;;;;;;;;;4846021;29;20048;-82
2022/06/14 11:18:16;;;;;;;4.13;1.40;;;;;;;;;;4880479;29;20036;-85
2022/06/14 11:20:48;;;;;;;3.22;1.20;;;;;;;;;;4895615;29;20061;-85
2022/06/14 11:23:34;;;;;;;4.68;1.35;;;;;;;;;;4874613;29;20040;-87
2022/06/14 11:26:22;;;;;;;7.60;1.75;;;;;;;;;;4894659;29;20056;-87
2022/06/14 11:29:03;;;;;;;4.97;1.55;;;;;;;;;;4875687;29;20448;-85
2022/06/14 11:31:29;;;;;;;4.07;1.75;;;;;;;;;;4876975;29;20048;-81
2022/06/14 11:34:10;;;;;;;4.15;1.40;;;;;;;;;;4892153;29;20036;-85
2022/06/14 11:37:02;;;;;;;4.43;1.70;;;;;;;;;;4876123;29;20049;-87
2022/06/14 11:39:28;;;;;;;6.30;2.17;;;;;;;;;;4894348;29;20520;-85
2022/06/14 11:41:54;;;;;;;4.05;1.73;;;;;;;;;;4892002;29;20056;-86
2022/06/14 11:44:20;;;;;;;5.10;1.55;;;;;;;;;;4894456;29;20049;-85
2022/06/14 11:46:49;;;;;;;5.63;1.63;;;;;;;;;;4882841;29;20047;-84
2022/06/14 11:49:28;;;;;;;5.20;1.88;;;;;;;;;;4890720;29;21076;-84
2022/06/14 11:52:03;;;;;;;8.45;1.67;;;;;;;;;;4874862;29;20450;-85
2022/06/14 11:54:48;;;;;;;4.43;1.95;;;;;;;;;;4883846;29;20048;-83
2022/06/14 11:57:14;;;;;;;9.32;2.15;;;;;;;;;;4878617;29;20084;-86
2022/06/14 11:59:48;;;;;;;6.57;1.50;;;;;;;;;;4859183;29;20047;-85
2022/06/14 12:02:28;;;;;;;4.20;1.85;;;;;;;;;;4890580;29;20062;-87
2022/06/14 12:04:58;;;;;;;8.82;1.83;;;;;;;;;;4873977;29;20056;-86
2022/06/14 12:07:33;;;;;;;8.48;2.35;;;;;;;;;;4886983;29;20378;-86
2022/06/14 12:10:18;;;;;;;7.72;2.17;;;;;;;;;;4881424;29;20049;-86
2022/06/14 12:13:07;;;;;;;5.40;1.90;;;;;;;;;;4865641;29;20056;-85
2022/06/14 12:15:34;;;;;;;7.22;2.08;;;;;;;;;;4884794;29;20052;-85
2022/06/14 12:18:01;;;;;;;10.50;2.30;;;;;;;;;;4891306;29;20492;-86
2022/06/14 12:20:31;;;;;;;7.30;2.03;;;;;;;;;;4860851;29;20517;-85
2022/06/14 12:23:26;;;;;;;4.03;1.77;;;;;;;;;;4890882;29;20509;-85
2022/06/14 12:28:56;;;;;;;6.55;1.70;;;;;;;;;;4880488;29;20059;-81
2022/06/14 12:31:30;;;;;;;4.97;1.67;;;;;;;;;;4872462;29;20048;-85
2022/06/14 12:33:56;;;;;;;;;;;;;;;;;;4891092;29;20131;-88
2022/06/14 12:36:45;;;;;;;3.95;1.60;;;;;;;;;;4873698;29;20013;-88
2022/06/14 12:39:16;;;;;;;7.38;1.63;;;;;;;;;;4903822;29;20063;-86
2022/06/14 12:42:11;;;;;;;6.57;1.58;;;;;;;;;;4889765;29;20392;-87
2022/06/14 12:44:45;;;;;;;3.67;1.52;;;;;;;;;;4865899;29;20516;-86
2022/06/14 12:47:11;;;;;;;;;;;;;;;;;;4902120;29;20358;-85
2022/06/14 12:49:40;;;;;;;3.58;1.27;;;;;;;;;;4879677;29;19967;-83
2022/06/14 12:52:09;;;;;;;3.22;1.42;;;;;;;;;;4891968;29;20048;-87
2022/06/14 12:54:54;;;;;;;5.93;1.35;;;;;;;;;;4895162;29;20446;-87
2022/06/14 12:57:24;;;;;;;4.40;1.85;;;;;;;;;;4905275;29;20116;-86
2022/06/14 12:59:56;;;;;;;8.05;1.60;;;;;;;;;;4894193;29;20100;-85
2022/06/14 13:02:43;;;;;;;4.82;1.55;;;;;;;;;;4886330;29;20497;-85
2022/06/14 13:05:12;;;;;;;4.13;1.35;;;;;;;;;;4894244;29;20084;-82
2022/06/14 13:07:41;;;;;;;3.63;1.20;;;;;;;;;;4875743;29;20041;-83
2022/06/14 13:10:11;;;;;;;4.63;1.60;;;;;;;;;;4892898;29;20048;-82
2022/06/14 13:12:40;;;;;;;3.10;1.35;;;;;;;;;;4911386;29;20059;-84
2022/06/14 13:15:15;;;;;;;7.47;1.63;;;;;;;;;;4916084;29;20135;-83
2022/06/14 13:17:41;;;;;;;4.10;1.40;;;;;;;;;;4913421;29;20048;-86
2022/06/14 13:20:26;;;;;;;2.58;1.33;;;;;;;;;;4890571;29;20048;-83
2022/06/14 13:26:33;;;;;;;7.40;1.60;;;;;;;;;;4905987;29;20054;-86
2022/06/14 13:29:04;;;;;;;5.40;1.10;;;;;;;;;;4913278;29;20063;-86
2022/06/14 13:31:50;;;;;;;3.28;1.20;;;;;;;;;;4915687;29;20066;-82
2022/06/14 13:45:49;;;;;;;5.38;1.17;;;;;;;;;;4906313;29;20059;-82
2022/06/14 14:01:32;;;;;;;5.53;1.17;;;;;;;;;;4865239;29;20040;-86
2022/06/14 14:04:16;;;;;;;2.15;1.10;;;;;;;;;;4886648;29;20045;-86
2022/06/14 14:07:15;;;;;;;4.07;1.63;;;;;;;;;;4880179;29;20044;-86
2022/06/14 14:10:07;;;;;;;5.38;1.50;;;;;;;;;;4820920;29;20386;-86
2022/06/14 14:12:41;;;;;;;4.38;1.60;;;;;;;;;;4866160;29;20108;-85
2022/06/14 14:15:07;;;;;;;4.53;1.60;;;;;;;;;;4885204;29;20048;-86
2022/06/14 14:17:40;;;;;;;4.03;1.58;;;;;;;;;;4866904;29;20037;-83
2022/06/14 14:20:18;;;;;;;4.28;1.90;;;;;;;;;;4860109;29;20059;-81
2022/06/14 14:22:54;;;;;;;5.15;1.42;;;;;;;;;;4867258;29;20057;-86
2022/06/14 14:25:21;;;;;;;4.78;1.52;;;;;;;;;;4871637;29;20040;-84
2022/06/14 14:28:06;;;;;;;2.70;1.50;;;;;;;;;;4842282;29;20075;-86
2022/06/14 14:30:51;;;;;;;8.85;1.80;;;;;;;;;;4887386;29;20045;-86
2022/06/14 14:33:23;;;;;;;3.33;1.73;;;;;;;;;;5087651;23;20141;-87
2022/06/14 14:36:07;;;;;;;6.13;1.67;;;;;;;;;;4890319;29;20060;-85
2022/06/14 14:38:41;;;;;;;7.22;1.70;;;;;;;;;;4898202;29;20087;-87
2022/06/14 14:44:42;;;;;;;6.10;1.42;;;19.70;99.90;;;;;;4871647;29;20053;-87
2022/06/14 14:47:14;;;;;;;2.78;1.35;;;;;;;;;;4838438;29;20054;-88
2022/06/14 14:49:43;;;;;;;5.53;1.45;;;;;;;;;;4839939;29;20069;-88
2022/06/14 14:52:13;;;;;;;6.80;1.48;;;;;;;;;;4854835;29;20053;-90
2022/06/14 14:54:49;;;;;;;7.43;1.50;;;;;;;;;;4877509;29;20072;-87
2022/06/14 14:57:15;;;;;;;4.78;1.48;;;;;;;;;;4889119;29;20060;-87
2022/06/14 15:00:02;;;;;;;4.97;1.48;;;;;;;;;;4864510;29;20053;-86
2022/06/14 15:05:50;;;;;;;4.65;1.23;;;;;;;;;;4876404;29;20080;-88
2022/06/14 15:08:33;;;;;;;4.50;1.63;;;;;;;;;;4867115;29;20045;-84
2022/06/14 15:11:04;;;;;;;12.25;1.35;;;;;;;;;;4862372;29;20074;-89
2022/06/14 15:13:36;;;;;;;6.57;1.45;;;;;;;;;;4862286;29;20057;-88
2022/06/14 15:16:04;;;;;;;5.75;1.95;;;;;;;;;;4843697;29;20052;-87
2022/06/14 15:21:23;;;;;;;7.35;1.50;;;;;;;;;;4864652;29;20425;-87
2022/06/14 15:23:54;;;;;;;7.25;1.58;;;;;;;;;;4845095;29;20052;-86
2022/06/14 15:26:22;;;;;;;4.40;1.40;;;21.50;99.90;;;;;;4879884;29;20056;-86
2022/06/14 15:29:00;;;;;;;6.95;1.50;;;;;;;;;;4867036;29;20049;-88
2022/06/14 15:31:26;;;;;;;7.75;1.67;;;;;;;;;;4874471;29;20044;-87
2022/06/14 15:33:56;;;;;;;7.68;1.40;;;;;;;;;;4877904;29;20056;-87
2022/06/14 15:36:27;;;;;;;7.32;1.67;;;;;;;;;;4895417;29;20040;-86
2022/06/14 15:38:56;;;;;;;7.78;1.90;;;;;;;;;;4877684;29;20080;-83
2022/06/14 15:41:25;;;;;;;6.30;1.55;;;;;;;;;;4892195;29;20531;-82
2022/06/14 15:44:18;;;;;;;6.35;1.48;;;;;;;;;;4898396;29;20088;-80
2022/06/14 15:46:59;;;;;;;8.35;1.80;;;;;;;;;;4877626;29;20041;-80
2022/06/14 15:49:30;;;;;;;9.23;1.50;;;;;;;;;;4868461;29;20084;-80
2022/06/14 15:52:12;;;;;;;3.55;1.50;;;21.60;99.90;;;;;;4885799;29;20059;-80
2022/06/14 15:54:38;;;;;;;4.85;1.45;;;;;;;;;;4883910;29;20410;-81
2022/06/14 15:57:06;;;;;;;4.55;1.65;;;;;;;;;;4873054;29;20079;-80
2022/06/14 15:59:53;;;;;;;3.88;1.30;;;;;;;;;;4868772;29;20118;-79
2022/06/14 16:02:36;;;;;;;5.28;1.40;;;;;;;;;;4868485;29;20040;-81
2022/06/14 16:05:05;;;;;;;4.82;1.48;;;;;;;;;;4887545;29;20049;-83
2022/06/14 16:07:32;;;;;;;7.20;1.88;;;;;;;;;;4887026;29;20127;-81
2022/06/14 16:09:58;;;;;;;5.38;2.00;;;;;;;;;;4874422;29;20041;-81